Decoded Metar for YSSY (SYDNEY in AUSTRALIA) (IATA:SYD) | Meteo·Mobile Aviation Weather
aviador You're here:

YSSY Decoded Metar

SYDNEY in AUSTRALIA
Report Time2019-03-23 09:00:00
UTC Time2019-03-23 09:07:21
Flight Rules vfr VFR
Wind030° at 09 kt
W.Decomp.*RWY 34: 7.1 kt HW 5.5 kt RCW
RWY 07: 5.5 kt HW 7.1 kt LCW
W.Rank030° ranks 2
Current wind is below 030° avg. (11.1)
Visibility9999 m
Phenomena:Light Shower Rain
Vicinity thunderstorm
Clouds:Few 030 Hf
Scattered 090 Hf
Broken 150 Hf
Expected CloudBase > 1,600 ft AGL from Temp-Dew spread
Ceiling15,000 ft
Temp25°C (ISA +10)
Dew Point21°C (79% RH)
QNH1011 hPa
Density Alt1,565 ft
Elevation10 ft
Report Wrong Elevation
Raw Report
METAR YSSY 230900Z 03009KT 9999 -SHRA VCTS FEW030 SCT090 BKN150 25/21 Q1011=

Extra information for YSSY:More info

Metar Taf Metar & Taf Last 4 Metars F.Rules Stats Wind Profile Meteogram Temp Stats Airport Information Weather charts Add Link Nearby VenuesMetar ALERT Operation Metar Decoded Social comments